メインページ
METAR-TAF:

METAR-TAF

空港 :

ウォリス, フランス

ヒヒフォ空港

緯度: 13-14S, 経度: 176-10W, 海抜: 23m

METAR: 見つかりません

時間: 22:38 (10:38 UTC)

予報

当レポートは5時間38分前の05:00(UTC)に作成
予報は23日の 06時(UTC)から 24日の 06時(UTC)まで有効
東/北東の風 8kt
視程10km以上
高度2500ftの雲は散在している
23日の 06時(UTC)から 23日の 10時(UTC)まで一時的に
視程: 3500m
高度1800ftの雲は散在している, 積乱雲.
にわか雨
23日の 23時(UTC)から 24日の 06時(UTC)まで一時的に
視程: 2000m
高度1400ftの千切れ雲あり
高度1800ftの雲は散在している, 積乱雲.
激しい雷雨, 大雨

TAF: NLWW 230500Z 2306/2406 07008KT 9999 SCT025 TEMPO 2306/2310 3500 SHRA SCT018CB TEMPO 2323/2406 2000 +TSRA BKN014 SCT018CB

4,000以上の空港の気象観測と天気予報(METAR報とTAF報)

利用可能な観測所は地図上に黄色い丸と赤い丸で示す。

丸の上にカーソルを重ねると観測所名を参照できる。

次にクリックすると気象観測と天気予報を参照できる。

マップの切り替え:黒色「×」印の緑ボタンをクリックして拡大、「-」印の緑ボタンをクリックして縮小、緑色の三角印をクリックして隣りの地図に切り替え


METAR-TAF: